createdAt,value
2022-12-25T00:01:16.860Z,13.55
2022-12-25T00:03:43.998Z,15.55
2022-12-25T00:06:11.080Z,9.57
2022-12-25T00:08:39.834Z,14.88
2022-12-25T00:11:10.237Z,16.95
2022-12-25T00:13:37.794Z,15.98
2022-12-25T00:16:09.939Z,13.25
2022-12-25T00:18:39.575Z,19.02
2022-12-25T00:21:07.451Z,15.77
2022-12-25T00:23:35.570Z,12.15
2022-12-25T00:26:07.332Z,18.30
2022-12-25T00:28:36.138Z,13.80
2022-12-25T00:31:08.365Z,13.90
2022-12-25T00:33:39.935Z,18.10
2022-12-25T00:36:08.361Z,9.15
2022-12-25T00:38:36.776Z,6.50
2022-12-25T00:41:08.041Z,15.77
2022-12-25T00:43:35.018Z,12.63
2022-12-25T00:46:04.613Z,15.73
2022-12-25T00:48:32.484Z,22.02
2022-12-25T00:51:02.435Z,22.15
2022-12-25T00:53:29.872Z,17.70
2022-12-25T00:56:03.217Z,12.40
2022-12-25T00:58:32.334Z,9.93
2022-12-25T01:00:59.445Z,18.48
2022-12-25T01:03:26.940Z,12.57
2022-12-25T01:05:59.008Z,23.45
2022-12-25T01:08:26.329Z,15.32
2022-12-25T01:10:58.514Z,16.15
2022-12-25T01:13:25.790Z,12.85
2022-12-25T01:15:52.834Z,11.85
2022-12-25T01:18:20.465Z,11.98
2022-12-25T01:20:47.948Z,17.73
2022-12-25T01:23:15.261Z,24.77
2022-12-25T01:25:42.279Z,18.23
2022-12-25T01:28:09.216Z,13.00
2022-12-25T01:30:36.143Z,10.35
2022-12-25T01:33:03.031Z,12.07
2022-12-25T01:35:29.918Z,13.25
2022-12-25T01:37:56.958Z,13.15
2022-12-25T01:40:23.857Z,19.48
2022-12-25T01:42:50.758Z,21.02
2022-12-25T01:45:40.532Z,10.85
2022-12-25T01:48:13.736Z,19.02
2022-12-25T01:50:44.953Z,12.32
2022-12-25T01:53:12.607Z,8.13
2022-12-25T01:55:40.954Z,8.65
2022-12-25T01:58:08.202Z,10.60
2022-12-25T02:00:35.097Z,9.35
2022-12-25T02:03:02.213Z,16.85
2022-12-25T02:05:34.296Z,12.43
2022-12-25T02:08:12.634Z,16.95
2022-12-25T02:10:39.554Z,22.38
2022-12-25T02:13:07.501Z,20.25
2022-12-25T02:16:05.584Z,11.75
2022-12-25T02:18:44.119Z,12.02
2022-12-25T02:21:24.335Z,11.90
2022-12-25T02:24:06.529Z,21.65
2022-12-25T02:26:58.318Z,17.17
2022-12-25T02:29:39.399Z,16.17
2022-12-25T02:32:26.079Z,15.93
2022-12-25T02:35:10.810Z,12.15
2022-12-25T02:37:44.695Z,12.35
2022-12-25T02:40:25.143Z,15.93
2022-12-25T02:43:25.882Z,16.35
2022-12-25T02:46:16.636Z,18.02
2022-12-25T02:49:40.784Z,18.83
2022-12-25T02:52:34.181Z,14.13
2022-12-25T02:55:24.862Z,18.65
2022-12-25T03:01:05.518Z,10.98
2022-12-25T03:03:55.740Z,13.60
2022-12-25T03:06:42.925Z,12.98
2022-12-25T03:09:41.124Z,6.53
2022-12-25T03:12:29.658Z,16.20
2022-12-25T03:15:15.291Z,16.80
2022-12-25T03:17:42.772Z,12.32
2022-12-25T03:20:28.938Z,21.02
2022-12-25T03:23:15.729Z,18.45
2022-12-25T03:26:01.182Z,13.35
2022-12-25T03:28:28.029Z,14.55
2022-12-25T03:31:20.608Z,16.17
2022-12-25T03:34:18.075Z,20.35
2022-12-25T03:37:05.983Z,15.20
2022-12-25T03:39:57.137Z,18.48
2022-12-25T03:42:56.028Z,19.88
2022-12-25T03:45:49.698Z,11.85
2022-12-25T03:48:36.113Z,18.55
2022-12-25T03:51:28.091Z,12.15
2022-12-25T03:54:17.460Z,22.50
2022-12-25T03:57:03.408Z,9.70
2022-12-25T03:59:48.775Z,10.93
2022-12-25T04:02:34.416Z,10.38
2022-12-25T04:05:20.018Z,7.68
2022-12-25T04:08:05.214Z,13.85
2022-12-25T04:10:50.609Z,15.25
2022-12-25T04:13:35.805Z,13.23
2022-12-25T04:16:21.566Z,13.85
2022-12-25T04:19:06.917Z,9.88
2022-12-25T04:21:52.284Z,10.50
2022-12-25T04:24:37.607Z,6.32
2022-12-25T04:27:22.890Z,9.23
2022-12-25T04:30:08.156Z,8.90
2022-12-25T04:32:53.591Z,10.88
2022-12-25T04:35:38.915Z,13.80
2022-12-25T04:38:05.703Z,9.20
2022-12-25T04:40:32.973Z,8.65
2022-12-25T04:42:59.809Z,13.10
2022-12-25T04:45:26.711Z,9.43
2022-12-25T04:47:53.500Z,9.65
2022-12-25T04:50:20.482Z,11.00
2022-12-25T04:52:47.300Z,9.20
2022-12-25T04:55:14.130Z,11.05
2022-12-25T04:57:41.035Z,10.73
2022-12-25T05:00:08.567Z,10.90
2022-12-25T05:02:35.611Z,11.20
2022-12-25T05:05:02.685Z,14.65
2022-12-25T05:07:29.638Z,7.50
2022-12-25T05:09:56.625Z,8.85
2022-12-25T05:12:23.450Z,13.98
2022-12-25T05:14:50.333Z,21.95
2022-12-25T05:17:17.133Z,12.18
2022-12-25T05:19:43.945Z,11.13
2022-12-25T05:22:10.738Z,17.70
2022-12-25T05:24:37.655Z,6.85
2022-12-25T05:27:04.486Z,14.98
2022-12-25T05:29:31.386Z,16.02
2022-12-25T05:31:58.217Z,8.23
2022-12-25T05:34:25.269Z,9.32
2022-12-25T05:36:52.124Z,13.15
2022-12-25T05:39:19.138Z,10.38
2022-12-25T05:41:45.986Z,7.53
2022-12-25T05:44:13.992Z,11.02
2022-12-25T05:46:40.973Z,10.15
2022-12-25T05:49:07.965Z,9.45
2022-12-25T05:51:34.881Z,14.52
2022-12-25T05:54:01.797Z,8.85
2022-12-25T05:56:28.635Z,9.40
2022-12-25T05:58:55.759Z,9.82
2022-12-25T06:01:25.571Z,9.82
2022-12-25T06:03:52.698Z,12.85
2022-12-25T06:06:19.790Z,14.20
2022-12-25T06:08:46.879Z,8.55
2022-12-25T06:11:15.175Z,12.07
2022-12-25T06:13:42.293Z,13.07
2022-12-25T06:16:11.853Z,11.98
2022-12-25T06:18:41.667Z,9.23
2022-12-25T06:21:10.439Z,16.38
2022-12-25T06:23:38.777Z,10.68
2022-12-25T06:26:07.412Z,12.18
2022-12-25T06:28:34.329Z,15.68
2022-12-25T06:31:07.451Z,17.10
2022-12-25T06:33:34.623Z,11.05
2022-12-25T06:36:10.347Z,16.50
2022-12-25T06:38:37.158Z,11.45
2022-12-25T06:41:13.569Z,14.20
2022-12-25T06:43:40.427Z,8.10
2022-12-25T06:46:09.950Z,10.02
2022-12-25T06:48:38.090Z,16.38
2022-12-25T06:51:06.082Z,11.32
2022-12-25T06:53:39.755Z,19.52
2022-12-25T06:56:10.399Z,19.02
2022-12-25T06:58:37.242Z,19.75
2022-12-25T07:01:15.422Z,12.60
2022-12-25T07:03:45.496Z,20.45
2022-12-25T07:06:12.762Z,26.67
2022-12-25T07:08:39.592Z,13.63
2022-12-25T07:11:07.320Z,13.55
2022-12-25T07:13:34.341Z,15.02
2022-12-25T07:16:03.486Z,14.68
2022-12-25T07:18:32.018Z,14.80
2022-12-25T07:20:59.758Z,15.85
2022-12-25T07:23:26.974Z,15.15
2022-12-25T07:25:55.060Z,14.77
2022-12-25T07:28:21.956Z,14.18
2022-12-25T07:30:49.319Z,22.45
2022-12-25T07:33:16.882Z,14.88
2022-12-25T07:35:43.833Z,14.60
2022-12-25T07:38:11.462Z,14.32
2022-12-25T07:40:38.955Z,17.35
2022-12-25T07:43:05.756Z,17.85
2022-12-25T07:45:32.806Z,13.48
2022-12-25T07:48:04.919Z,14.30
2022-12-25T07:50:33.016Z,8.70
2022-12-25T07:52:59.832Z,15.18
2022-12-25T07:55:26.684Z,20.52
2022-12-25T07:57:53.502Z,14.25
2022-12-25T08:00:20.621Z,18.10
2022-12-25T08:02:51.068Z,17.83
2022-12-25T08:05:18.088Z,18.35
2022-12-25T08:07:44.945Z,18.63
2022-12-25T08:12:56.295Z,11.80
2022-12-25T08:15:23.589Z,19.80
2022-12-25T08:17:50.463Z,19.40
2022-12-25T08:20:17.395Z,19.73
2022-12-25T08:22:44.236Z,19.55
2022-12-25T08:25:11.073Z,10.88
2022-12-25T08:27:38.358Z,19.50
2022-12-25T08:30:05.742Z,17.45
2022-12-25T08:32:33.796Z,19.20
2022-12-25T08:35:00.694Z,19.80
2022-12-25T08:37:30.347Z,27.60
2022-12-25T08:39:57.198Z,54.58
2022-12-25T08:42:24.333Z,43.33
2022-12-25T08:44:51.174Z,49.90
2022-12-25T08:47:18.126Z,47.53
2022-12-25T08:49:45.004Z,81.28
2022-12-25T08:52:11.933Z,70.22
2022-12-25T08:54:38.786Z,73.05
2022-12-25T08:57:05.658Z,44.97
2022-12-25T08:59:32.502Z,69.63
2022-12-25T09:01:59.457Z,237.35
2022-12-25T09:04:26.326Z,203.80
2022-12-25T09:06:53.281Z,59.00
2022-12-25T09:09:20.099Z,32.40
2022-12-25T09:11:48.806Z,25.70
2022-12-25T09:14:16.050Z,21.80
2022-12-25T09:16:42.960Z,18.77
2022-12-25T09:19:09.823Z,15.02
2022-12-25T09:21:36.938Z,14.52
2022-12-25T09:24:08.944Z,16.42
2022-12-25T09:26:37.280Z,15.77
2022-12-25T09:29:04.088Z,16.45
2022-12-25T09:31:30.947Z,20.25
2022-12-25T09:33:58.350Z,18.80
2022-12-25T09:36:25.812Z,12.00
2022-12-25T09:38:53.178Z,9.43
2022-12-25T09:41:35.073Z,17.20
2022-12-25T09:44:28.887Z,9.38
2022-12-25T09:47:05.129Z,18.38
2022-12-25T09:49:40.803Z,19.55
2022-12-25T09:52:30.803Z,12.45
2022-12-25T09:55:21.168Z,11.13
2022-12-25T09:58:12.680Z,14.43
2022-12-25T10:00:50.966Z,13.57
2022-12-25T10:03:35.514Z,12.40
2022-12-25T10:06:25.724Z,15.93
2022-12-25T10:09:14.217Z,10.13
2022-12-25T10:12:07.989Z,12.63
2022-12-25T10:14:46.966Z,10.65
2022-12-25T10:17:41.424Z,16.35
2022-12-25T10:20:40.388Z,16.33
2022-12-25T10:23:16.189Z,12.73
2022-12-25T10:25:44.654Z,13.65
2022-12-25T10:28:23.454Z,11.30
2022-12-25T10:30:53.249Z,13.18
2022-12-25T10:33:21.643Z,15.77
2022-12-25T10:35:48.774Z,9.85
2022-12-25T10:38:18.393Z,12.20
2022-12-25T10:41:03.953Z,9.23
2022-12-25T10:43:56.229Z,14.98
2022-12-25T10:46:28.991Z,10.32
2022-12-25T10:49:00.200Z,13.35
2022-12-25T10:51:45.139Z,10.40
2022-12-25T10:54:35.234Z,11.80
2022-12-25T10:57:13.196Z,13.45
2022-12-25T10:59:48.754Z,7.95
2022-12-25T11:02:27.205Z,13.43
2022-12-25T11:05:10.843Z,9.80
2022-12-25T11:07:54.199Z,11.38
2022-12-25T11:10:26.806Z,11.32
2022-12-25T11:12:54.376Z,10.27
2022-12-25T11:15:42.524Z,11.02
2022-12-25T11:18:15.403Z,8.73
2022-12-25T11:20:49.020Z,19.85
2022-12-25T11:23:20.340Z,13.15
2022-12-25T11:25:59.451Z,9.73
2022-12-25T11:28:28.470Z,16.90
2022-12-25T11:31:00.842Z,14.55
2022-12-25T11:33:35.548Z,15.90
2022-12-25T11:36:09.341Z,13.38
2022-12-25T11:38:36.225Z,9.05
2022-12-25T11:41:05.701Z,13.13
2022-12-25T11:43:47.488Z,17.97
2022-12-25T11:46:23.865Z,13.55
2022-12-25T11:48:56.345Z,8.68
2022-12-25T11:51:31.628Z,20.55
2022-12-25T11:54:17.091Z,12.40
2022-12-25T11:56:44.007Z,11.30
2022-12-25T11:59:26.308Z,11.35
2022-12-25T12:02:11.565Z,7.95
2022-12-25T12:04:43.809Z,12.82
2022-12-25T12:07:18.807Z,11.57
2022-12-25T12:09:51.457Z,11.43
2022-12-25T12:12:32.213Z,9.80
2022-12-25T12:15:12.310Z,11.38
2022-12-25T12:17:39.209Z,7.75
2022-12-25T12:20:26.778Z,10.48
2022-12-25T12:22:53.942Z,11.77
2022-12-25T12:25:22.194Z,13.77
2022-12-25T12:28:02.851Z,16.92
2022-12-25T12:30:35.390Z,11.43
2022-12-25T12:35:36.939Z,6.45
2022-12-25T12:38:12.087Z,9.07
2022-12-25T12:40:52.397Z,10.68
2022-12-25T12:46:08.391Z,10.27
2022-12-25T12:48:42.163Z,8.35
2022-12-25T12:51:11.850Z,13.18
2022-12-25T12:53:41.614Z,10.90
2022-12-25T12:56:18.500Z,8.98
2022-12-25T12:58:50.944Z,10.88
2022-12-25T13:01:26.929Z,11.05
2022-12-25T13:04:18.295Z,11.50
2022-12-25T13:07:03.789Z,5.57
2022-12-25T13:09:49.549Z,8.50
2022-12-25T13:12:17.873Z,8.95
2022-12-25T13:14:46.606Z,11.35
2022-12-25T13:17:21.826Z,10.30
2022-12-25T13:19:59.494Z,23.52
2022-12-25T13:22:36.786Z,32.67
2022-12-25T13:25:14.965Z,31.52
2022-12-25T13:27:41.826Z,24.42
2022-12-25T13:30:19.005Z,13.88
2022-12-25T13:32:46.329Z,15.18
2022-12-25T13:35:15.647Z,6.38
2022-12-25T13:37:43.746Z,8.43
2022-12-25T13:40:22.703Z,17.60
2022-12-25T13:42:51.780Z,11.00
2022-12-25T13:45:28.858Z,8.70
2022-12-25T13:47:56.421Z,8.40
2022-12-25T13:50:31.860Z,9.43
2022-12-25T13:53:11.577Z,6.25
2022-12-25T13:55:39.967Z,7.78
2022-12-25T13:58:18.034Z,10.57
2022-12-25T14:00:51.015Z,4.45
2022-12-25T14:03:33.303Z,6.82
2022-12-25T14:06:02.576Z,7.63
2022-12-25T14:08:32.281Z,8.85
2022-12-25T14:11:03.772Z,9.57
2022-12-25T14:13:35.044Z,10.70
2022-12-25T14:16:02.649Z,10.93
2022-12-25T14:18:30.802Z,6.57
2022-12-25T14:21:07.455Z,15.05
2022-12-25T14:23:43.208Z,7.53
2022-12-25T14:26:26.026Z,18.75
2022-12-25T14:29:02.368Z,7.40
2022-12-25T14:31:29.820Z,8.98
2022-12-25T14:33:59.080Z,7.30
2022-12-25T14:36:26.787Z,6.47
2022-12-25T14:39:01.890Z,7.45
2022-12-25T14:41:33.975Z,6.30
2022-12-25T14:44:03.577Z,9.45
2022-12-25T14:46:32.164Z,11.13
2022-12-25T14:49:09.927Z,8.57
2022-12-25T14:51:38.875Z,7.45
2022-12-25T14:54:17.675Z,10.30
2022-12-25T14:56:50.245Z,10.30
2022-12-25T14:59:25.331Z,10.27
2022-12-25T15:01:55.710Z,7.97
2022-12-25T15:04:23.964Z,5.85
2022-12-25T15:06:56.604Z,9.98
2022-12-25T15:09:23.841Z,11.63
2022-12-25T15:11:53.042Z,7.53
2022-12-25T15:14:20.248Z,10.27
2022-12-25T15:16:49.496Z,14.02
2022-12-25T15:19:28.197Z,10.15
2022-12-25T15:21:58.242Z,12.73
2022-12-25T15:24:25.154Z,11.25
2022-12-25T15:26:53.425Z,14.30
2022-12-25T15:29:38.138Z,5.97
2022-12-25T15:32:15.649Z,9.48
2022-12-25T15:34:42.511Z,13.20
2022-12-25T15:37:09.301Z,8.90
2022-12-25T15:39:36.175Z,5.65
2022-12-25T15:42:11.904Z,6.63
2022-12-25T15:44:40.237Z,8.73
2022-12-25T15:47:09.159Z,7.15
2022-12-25T15:49:36.091Z,5.50
2022-12-25T15:52:05.673Z,5.75
2022-12-25T15:54:32.787Z,5.60
2022-12-25T15:57:04.052Z,4.38
2022-12-25T15:59:31.910Z,7.35
2022-12-25T16:02:00.925Z,6.60
2022-12-25T16:04:29.427Z,5.38
2022-12-25T16:06:56.724Z,5.80
2022-12-25T16:09:23.652Z,6.78
2022-12-25T16:11:50.750Z,9.10
2022-12-25T16:14:19.675Z,9.07
2022-12-25T16:16:46.767Z,7.43
2022-12-25T16:19:14.087Z,9.13
2022-12-25T16:21:46.189Z,9.75
2022-12-25T16:24:14.331Z,5.18
2022-12-25T16:26:41.589Z,6.30
2022-12-25T16:29:08.804Z,10.80
2022-12-25T16:31:37.505Z,11.10
2022-12-25T16:34:06.430Z,17.98
2022-12-25T16:36:34.601Z,11.10
2022-12-25T16:39:03.034Z,15.38
2022-12-25T16:41:30.064Z,10.55
2022-12-25T16:43:56.987Z,10.40
2022-12-25T16:46:24.059Z,10.95
2022-12-25T16:48:51.013Z,10.77
2022-12-25T16:51:19.982Z,10.38
2022-12-25T16:53:47.644Z,12.93
2022-12-25T16:56:17.543Z,7.75
2022-12-25T16:58:46.777Z,10.73
2022-12-25T17:01:16.357Z,9.82
2022-12-25T17:03:43.353Z,13.25
2022-12-25T17:06:15.521Z,16.98
2022-12-25T17:08:43.356Z,23.48
2022-12-25T17:11:11.314Z,14.65
2022-12-25T17:13:38.636Z,18.67
2022-12-25T17:16:17.171Z,14.57
2022-12-25T17:18:44.736Z,10.90
2022-12-25T17:21:12.363Z,7.88
2022-12-25T17:23:39.405Z,9.15
2022-12-25T17:26:06.982Z,9.55
2022-12-25T17:28:34.840Z,7.10
2022-12-25T17:31:04.287Z,11.10
2022-12-25T17:33:31.920Z,11.10
2022-12-25T17:36:10.578Z,6.45
2022-12-25T17:38:37.850Z,7.22
2022-12-25T17:41:07.243Z,7.20
2022-12-25T17:43:35.249Z,6.37
2022-12-25T17:46:12.690Z,7.40
2022-12-25T17:48:39.622Z,6.28
2022-12-25T17:51:12.208Z,6.15
2022-12-25T17:53:41.667Z,5.60
2022-12-25T17:56:09.789Z,9.97
2022-12-25T17:58:38.114Z,11.07
2022-12-25T18:01:16.754Z,8.35
2022-12-25T18:03:44.616Z,12.23
2022-12-25T18:06:14.231Z,7.82
2022-12-25T18:08:42.837Z,18.30
2022-12-25T18:11:15.421Z,9.88
2022-12-25T18:13:45.028Z,7.60
2022-12-25T18:16:13.189Z,10.35
2022-12-25T18:18:41.757Z,9.93
2022-12-25T18:21:12.655Z,5.47
2022-12-25T18:23:39.576Z,8.13
2022-12-25T18:26:08.989Z,6.05
2022-12-25T18:28:36.524Z,10.60
2022-12-25T18:31:08.075Z,11.55
2022-12-25T18:33:35.094Z,9.90
2022-12-25T18:36:02.981Z,8.35
2022-12-25T18:38:30.336Z,7.43
2022-12-25T18:40:58.005Z,7.75
2022-12-25T18:43:53.583Z,11.25
2022-12-25T18:46:12.481Z,7.55
2022-12-25T18:48:39.805Z,10.75
2022-12-25T18:51:11.670Z,14.60
2022-12-25T18:53:41.484Z,15.73
2022-12-25T18:56:12.130Z,7.95
2022-12-25T18:58:39.439Z,8.65
2022-12-25T19:01:26.515Z,7.70
2022-12-25T19:04:00.082Z,9.95
2022-12-25T19:06:33.341Z,7.03
2022-12-25T19:09:00.320Z,6.73
2022-12-25T19:11:27.186Z,5.85
2022-12-25T19:13:54.419Z,7.60
2022-12-25T19:16:21.882Z,6.57
2022-12-25T19:18:48.888Z,9.82
2022-12-25T19:21:16.265Z,7.45
2022-12-25T19:23:43.596Z,7.32
2022-12-25T19:26:11.532Z,6.28
2022-12-25T19:28:40.091Z,6.32
2022-12-25T19:31:08.762Z,14.82
2022-12-25T19:33:40.104Z,10.90
2022-12-25T19:36:13.050Z,5.60
2022-12-25T19:38:40.626Z,8.10
2022-12-25T19:41:14.066Z,9.82
2022-12-25T19:43:42.345Z,9.63
2022-12-25T19:46:19.371Z,6.90
2022-12-25T19:48:46.709Z,8.07
2022-12-25T19:51:19.354Z,5.65
2022-12-25T19:53:46.858Z,6.75
2022-12-25T19:56:14.258Z,8.90
2022-12-25T19:58:41.201Z,7.82
2022-12-25T20:01:13.471Z,8.75
2022-12-25T20:03:46.202Z,7.72
2022-12-25T20:06:22.134Z,4.97
2022-12-25T20:11:47.728Z,8.13
2022-12-25T20:14:16.493Z,9.90
2022-12-25T20:16:44.072Z,6.65
2022-12-25T20:19:14.662Z,5.72
2022-12-25T20:21:41.825Z,7.55
2022-12-25T20:24:11.025Z,8.20
2022-12-25T20:26:39.171Z,6.30
2022-12-25T20:29:06.745Z,6.93
2022-12-25T20:31:35.039Z,4.35
2022-12-25T20:34:07.790Z,4.32
2022-12-25T20:36:37.668Z,8.10
2022-12-25T20:41:33.798Z,7.57
2022-12-25T20:44:02.031Z,5.95
2022-12-25T20:46:29.493Z,4.45
2022-12-25T20:48:56.492Z,5.72
2022-12-25T20:51:26.085Z,4.70
2022-12-25T20:53:54.408Z,7.67
2022-12-25T20:56:24.941Z,5.82
2022-12-25T20:59:00.194Z,11.07
2022-12-25T21:01:29.394Z,6.07
2022-12-25T21:03:57.210Z,6.90
2022-12-25T21:06:24.381Z,5.43
2022-12-25T21:08:51.306Z,7.82
2022-12-25T21:11:18.603Z,5.90
2022-12-25T21:13:46.175Z,6.72
2022-12-25T21:16:20.606Z,6.93
2022-12-25T21:18:48.064Z,7.53
2022-12-25T21:21:15.793Z,7.10
2022-12-25T21:23:42.780Z,7.72
2022-12-25T21:26:21.585Z,7.18
2022-12-25T21:28:55.056Z,5.82
2022-12-25T21:31:22.516Z,8.30
2022-12-25T21:33:53.713Z,9.00
2022-12-25T21:36:25.094Z,4.53
2022-12-25T21:38:54.819Z,5.78
2022-12-25T21:41:22.474Z,6.53
2022-12-25T21:43:49.328Z,7.10
2022-12-25T21:46:16.331Z,7.45
2022-12-25T21:48:45.227Z,6.93
2022-12-25T21:51:34.598Z,9.95
2022-12-25T21:54:03.511Z,10.27
2022-12-25T21:56:31.861Z,7.35
2022-12-25T21:59:03.992Z,5.05
2022-12-25T22:01:31.694Z,6.28
2022-12-25T22:04:06.951Z,5.93
2022-12-25T22:06:52.592Z,5.28
2022-12-25T22:09:20.656Z,6.10
2022-12-25T22:12:06.309Z,4.88
2022-12-25T22:14:59.791Z,6.90
2022-12-25T22:17:57.240Z,5.53
2022-12-25T22:20:35.602Z,7.68
2022-12-25T22:23:02.794Z,5.95
2022-12-25T22:25:29.759Z,3.67
2022-12-25T22:27:58.140Z,9.13
2022-12-25T22:30:28.183Z,4.47
2022-12-25T22:32:56.617Z,4.20
2022-12-25T22:35:23.968Z,5.50
2022-12-25T22:37:51.004Z,5.63
2022-12-25T22:40:19.459Z,8.80
2022-12-25T22:42:46.945Z,4.18
2022-12-25T22:45:14.316Z,3.13
2022-12-25T22:47:41.741Z,6.43
2022-12-25T22:50:09.757Z,4.90
2022-12-25T22:52:37.159Z,5.05
2022-12-25T22:55:05.355Z,4.47
2022-12-25T22:57:32.238Z,4.75
2022-12-25T22:59:59.204Z,8.52
2022-12-25T23:02:26.400Z,9.27
2022-12-25T23:04:53.589Z,4.97
2022-12-25T23:07:20.422Z,4.93
2022-12-25T23:09:47.361Z,5.40
2022-12-25T23:12:32.607Z,6.35
2022-12-25T23:14:59.636Z,6.55
2022-12-25T23:17:45.143Z,5.80
2022-12-25T23:20:33.102Z,3.90
2022-12-25T23:23:19.164Z,8.38
2022-12-25T23:26:04.847Z,3.97
2022-12-25T23:28:50.228Z,7.47
2022-12-25T23:31:17.342Z,5.97
2022-12-25T23:33:44.318Z,8.48
2022-12-25T23:36:11.198Z,9.15
2022-12-25T23:38:38.030Z,4.88
2022-12-25T23:41:04.905Z,4.50
2022-12-25T23:43:31.840Z,6.10
2022-12-25T23:45:58.795Z,5.03
2022-12-25T23:48:25.646Z,10.95
2022-12-25T23:50:52.468Z,5.90
2022-12-25T23:53:19.384Z,5.15
2022-12-25T23:55:51.557Z,3.83
2022-12-25T23:58:22.033Z,11.38
